sensor_id;sensor_type;location;lat;lon;timestamp;P1;durP1;ratioP1;P2;durP2;ratioP2
20531;SDS011;10424;52.102;8.084;2024-03-17T00:01:02;12.07;;;6.00;;
20531;SDS011;10424;52.102;8.084;2024-03-17T00:03:29;15.13;;;6.77;;
20531;SDS011;10424;52.102;8.084;2024-03-17T00:05:56;20.97;;;9.23;;
20531;SDS011;10424;52.102;8.084;2024-03-17T00:08:25;17.47;;;8.00;;
20531;SDS011;10424;52.102;8.084;2024-03-17T00:10:51;13.63;;;5.87;;
20531;SDS011;10424;52.102;8.084;2024-03-17T00:13:19;11.07;;;6.40;;
20531;SDS011;10424;52.102;8.084;2024-03-17T00:15:47;14.20;;;6.63;;
20531;SDS011;10424;52.102;8.084;2024-03-17T00:18:13;15.97;;;7.17;;
20531;SDS011;10424;52.102;8.084;2024-03-17T00:20:41;14.77;;;7.00;;
20531;SDS011;10424;52.102;8.084;2024-03-17T00:23:08;15.67;;;7.23;;
20531;SDS011;10424;52.102;8.084;2024-03-17T00:25:38;13.17;;;6.83;;
20531;SDS011;10424;52.102;8.084;2024-03-17T00:28:05;16.47;;;7.97;;
20531;SDS011;10424;52.102;8.084;2024-03-17T00:30:32;19.63;;;7.63;;
20531;SDS011;10424;52.102;8.084;2024-03-17T00:32:58;19.70;;;8.47;;
20531;SDS011;10424;52.102;8.084;2024-03-17T00:35:25;15.60;;;7.63;;
20531;SDS011;10424;52.102;8.084;2024-03-17T00:37:52;16.97;;;8.03;;
20531;SDS011;10424;52.102;8.084;2024-03-17T00:40:19;16.23;;;8.40;;
20531;SDS011;10424;52.102;8.084;2024-03-17T00:42:47;17.67;;;7.43;;
20531;SDS011;10424;52.102;8.084;2024-03-17T00:45:14;14.03;;;6.43;;
20531;SDS011;10424;52.102;8.084;2024-03-17T00:47:40;14.87;;;6.57;;
20531;SDS011;10424;52.102;8.084;2024-03-17T00:50:08;12.57;;;6.17;;
20531;SDS011;10424;52.102;8.084;2024-03-17T00:52:36;14.97;;;6.00;;
20531;SDS011;10424;52.102;8.084;2024-03-17T00:55:04;9.10;;;5.57;;
20531;SDS011;10424;52.102;8.084;2024-03-17T00:57:30;12.27;;;6.07;;
20531;SDS011;10424;52.102;8.084;2024-03-17T00:59:58;12.03;;;5.50;;
20531;SDS011;10424;52.102;8.084;2024-03-17T01:02:25;10.33;;;5.43;;
20531;SDS011;10424;52.102;8.084;2024-03-17T01:04:52;14.53;;;5.30;;
20531;SDS011;10424;52.102;8.084;2024-03-17T01:07:18;10.60;;;5.20;;
20531;SDS011;10424;52.102;8.084;2024-03-17T01:09:46;9.73;;;5.22;;
20531;SDS011;10424;52.102;8.084;2024-03-17T01:12:13;16.73;;;6.23;;
20531;SDS011;10424;52.102;8.084;2024-03-17T01:14:40;19.70;;;7.20;;
20531;SDS011;10424;52.102;8.084;2024-03-17T01:17:07;14.27;;;6.07;;
20531;SDS011;10424;52.102;8.084;2024-03-17T01:19:35;12.37;;;4.97;;
20531;SDS011;10424;52.102;8.084;2024-03-17T01:22:01;10.13;;;4.30;;
20531;SDS011;10424;52.102;8.084;2024-03-17T01:24:28;7.30;;;4.30;;
20531;SDS011;10424;52.102;8.084;2024-03-17T01:26:56;6.50;;;3.90;;
20531;SDS011;10424;52.102;8.084;2024-03-17T01:29:24;7.27;;;3.80;;
20531;SDS011;10424;52.102;8.084;2024-03-17T01:31:50;7.50;;;3.57;;
20531;SDS011;10424;52.102;8.084;2024-03-17T01:34:19;9.43;;;3.80;;
20531;SDS011;10424;52.102;8.084;2024-03-17T01:36:45;7.67;;;3.50;;
20531;SDS011;10424;52.102;8.084;2024-03-17T01:39:12;7.47;;;3.87;;
20531;SDS011;10424;52.102;8.084;2024-03-17T01:41:40;9.97;;;3.90;;
20531;SDS011;10424;52.102;8.084;2024-03-17T01:44:07;9.47;;;4.20;;
20531;SDS011;10424;52.102;8.084;2024-03-17T01:46:33;12.00;;;4.10;;
20531;SDS011;10424;52.102;8.084;2024-03-17T01:49:01;7.97;;;4.17;;
20531;SDS011;10424;52.102;8.084;2024-03-17T01:51:30;11.00;;;4.00;;
20531;SDS011;10424;52.102;8.084;2024-03-17T01:53:58;8.63;;;4.30;;
20531;SDS011;10424;52.102;8.084;2024-03-17T01:56:24;9.93;;;4.17;;
20531;SDS011;10424;52.102;8.084;2024-03-17T01:58:51;8.70;;;4.10;;
20531;SDS011;10424;52.102;8.084;2024-03-17T02:01:17;6.57;;;4.20;;
20531;SDS011;10424;52.102;8.084;2024-03-17T02:03:45;11.53;;;4.47;;
20531;SDS011;10424;52.102;8.084;2024-03-17T02:06:11;11.03;;;4.10;;
20531;SDS011;10424;52.102;8.084;2024-03-17T02:08:50;9.03;;;4.20;;
20531;SDS011;10424;52.102;8.084;2024-03-17T02:11:23;9.33;;;4.27;;
20531;SDS011;10424;52.102;8.084;2024-03-17T02:13:50;9.03;;;3.90;;
20531;SDS011;10424;52.102;8.084;2024-03-17T02:16:17;8.93;;;4.03;;
20531;SDS011;10424;52.102;8.084;2024-03-17T02:18:44;9.00;;;3.90;;
20531;SDS011;10424;52.102;8.084;2024-03-17T02:21:11;8.13;;;4.23;;
20531;SDS011;10424;52.102;8.084;2024-03-17T02:23:40;9.33;;;4.03;;
20531;SDS011;10424;52.102;8.084;2024-03-17T02:26:06;9.00;;;4.07;;
20531;SDS011;10424;52.102;8.084;2024-03-17T02:28:40;7.47;;;4.30;;
20531;SDS011;10424;52.102;8.084;2024-03-17T02:31:07;6.80;;;3.90;;
20531;SDS011;10424;52.102;8.084;2024-03-17T02:33:35;8.40;;;4.03;;
20531;SDS011;10424;52.102;8.084;2024-03-17T02:36:01;9.30;;;4.07;;
20531;SDS011;10424;52.102;8.084;2024-03-17T02:38:32;10.43;;;4.40;;
20531;SDS011;10424;52.102;8.084;2024-03-17T02:41:18;9.47;;;4.10;;
20531;SDS011;10424;52.102;8.084;2024-03-17T02:43:45;9.97;;;4.53;;
20531;SDS011;10424;52.102;8.084;2024-03-17T02:46:12;9.80;;;3.63;;
20531;SDS011;10424;52.102;8.084;2024-03-17T02:48:40;7.50;;;3.57;;
20531;SDS011;10424;52.102;8.084;2024-03-17T02:51:10;6.07;;;3.57;;
20531;SDS011;10424;52.102;8.084;2024-03-17T02:53:39;11.17;;;3.67;;
20531;SDS011;10424;52.102;8.084;2024-03-17T02:56:06;7.90;;;3.60;;
20531;SDS011;10424;52.102;8.084;2024-03-17T02:58:35;8.20;;;3.57;;
20531;SDS011;10424;52.102;8.084;2024-03-17T03:01:02;7.83;;;3.63;;
20531;SDS011;10424;52.102;8.084;2024-03-17T03:03:30;7.27;;;3.43;;
20531;SDS011;10424;52.102;8.084;2024-03-17T03:05:57;8.53;;;3.50;;
20531;SDS011;10424;52.102;8.084;2024-03-17T03:08:26;9.90;;;3.63;;
20531;SDS011;10424;52.102;8.084;2024-03-17T03:10:53;6.93;;;3.30;;
20531;SDS011;10424;52.102;8.084;2024-03-17T03:13:20;6.20;;;3.30;;
20531;SDS011;10424;52.102;8.084;2024-03-17T03:15:49;8.93;;;3.20;;
20531;SDS011;10424;52.102;8.084;2024-03-17T03:18:16;8.07;;;3.60;;
20531;SDS011;10424;52.102;8.084;2024-03-17T03:20:49;7.90;;;3.43;;
20531;SDS011;10424;52.102;8.084;2024-03-17T03:23:16;7.37;;;3.10;;
20531;SDS011;10424;52.102;8.084;2024-03-17T03:25:43;6.77;;;3.40;;
20531;SDS011;10424;52.102;8.084;2024-03-17T03:28:11;9.53;;;3.47;;
20531;SDS011;10424;52.102;8.084;2024-03-17T03:30:38;7.37;;;3.30;;
20531;SDS011;10424;52.102;8.084;2024-03-17T03:33:07;5.77;;;3.10;;
20531;SDS011;10424;52.102;8.084;2024-03-17T03:35:34;11.87;;;3.10;;
20531;SDS011;10424;52.102;8.084;2024-03-17T03:38:00;9.07;;;3.30;;
20531;SDS011;10424;52.102;8.084;2024-03-17T03:40:28;9.33;;;3.23;;
20531;SDS011;10424;52.102;8.084;2024-03-17T03:42:55;9.03;;;2.93;;
20531;SDS011;10424;52.102;8.084;2024-03-17T03:45:22;10.87;;;3.30;;
20531;SDS011;10424;52.102;8.084;2024-03-17T03:47:50;9.03;;;3.47;;
20531;SDS011;10424;52.102;8.084;2024-03-17T03:50:20;9.70;;;2.93;;
20531;SDS011;10424;52.102;8.084;2024-03-17T03:52:48;5.63;;;3.17;;
20531;SDS011;10424;52.102;8.084;2024-03-17T03:55:16;6.87;;;3.53;;
20531;SDS011;10424;52.102;8.084;2024-03-17T03:57:44;5.53;;;3.13;;
20531;SDS011;10424;52.102;8.084;2024-03-17T04:00:13;5.37;;;3.43;;
20531;SDS011;10424;52.102;8.084;2024-03-17T04:02:40;11.03;;;4.30;;
20531;SDS011;10424;52.102;8.084;2024-03-17T04:05:08;7.53;;;3.60;;
20531;SDS011;10424;52.102;8.084;2024-03-17T04:07:37;10.60;;;4.17;;
20531;SDS011;10424;52.102;8.084;2024-03-17T04:10:05;9.50;;;4.20;;
20531;SDS011;10424;52.102;8.084;2024-03-17T04:12:32;6.53;;;3.73;;
20531;SDS011;10424;52.102;8.084;2024-03-17T04:14:59;8.60;;;4.33;;
20531;SDS011;10424;52.102;8.084;2024-03-17T04:17:27;11.97;;;5.33;;
20531;SDS011;10424;52.102;8.084;2024-03-17T04:19:54;6.87;;;4.67;;
20531;SDS011;10424;52.102;8.084;2024-03-17T04:22:21;9.97;;;5.47;;
20531;SDS011;10424;52.102;8.084;2024-03-17T04:24:50;9.37;;;5.13;;
20531;SDS011;10424;52.102;8.084;2024-03-17T04:27:19;10.67;;;5.10;;
20531;SDS011;10424;52.102;8.084;2024-03-17T04:29:46;11.73;;;5.37;;
20531;SDS011;10424;52.102;8.084;2024-03-17T04:32:14;9.00;;;5.47;;
20531;SDS011;10424;52.102;8.084;2024-03-17T04:34:41;9.53;;;4.93;;
20531;SDS011;10424;52.102;8.084;2024-03-17T04:37:09;10.27;;;5.10;;
20531;SDS011;10424;52.102;8.084;2024-03-17T04:39:37;11.80;;;5.97;;
20531;SDS011;10424;52.102;8.084;2024-03-17T04:42:05;10.40;;;5.30;;
20531;SDS011;10424;52.102;8.084;2024-03-17T04:44:33;9.33;;;5.10;;
20531;SDS011;10424;52.102;8.084;2024-03-17T04:47:00;12.37;;;5.63;;
20531;SDS011;10424;52.102;8.084;2024-03-17T04:49:31;13.43;;;5.80;;
20531;SDS011;10424;52.102;8.084;2024-03-17T04:51:58;18.50;;;6.40;;
20531;SDS011;10424;52.102;8.084;2024-03-17T04:54:26;14.33;;;7.07;;
20531;SDS011;10424;52.102;8.084;2024-03-17T04:56:53;15.20;;;7.70;;
20531;SDS011;10424;52.102;8.084;2024-03-17T04:59:21;15.27;;;8.00;;
20531;SDS011;10424;52.102;8.084;2024-03-17T05:01:49;16.17;;;8.07;;
20531;SDS011;10424;52.102;8.084;2024-03-17T05:04:16;16.27;;;8.77;;
20531;SDS011;10424;52.102;8.084;2024-03-17T05:06:44;16.70;;;9.10;;
20531;SDS011;10424;52.102;8.084;2024-03-17T05:09:11;18.93;;;9.33;;
20531;SDS011;10424;52.102;8.084;2024-03-17T05:11:39;20.63;;;8.97;;
20531;SDS011;10424;52.102;8.084;2024-03-17T05:14:06;17.27;;;9.47;;
20531;SDS011;10424;52.102;8.084;2024-03-17T05:16:35;16.47;;;9.40;;
20531;SDS011;10424;52.102;8.084;2024-03-17T05:19:02;20.33;;;9.60;;
20531;SDS011;10424;52.102;8.084;2024-03-17T05:21:29;17.83;;;9.90;;
20531;SDS011;10424;52.102;8.084;2024-03-17T05:23:56;19.57;;;10.07;;
20531;SDS011;10424;52.102;8.084;2024-03-17T05:26:24;20.40;;;10.80;;
20531;SDS011;10424;52.102;8.084;2024-03-17T05:28:51;17.23;;;10.50;;
20531;SDS011;10424;52.102;8.084;2024-03-17T05:31:18;22.73;;;10.80;;
20531;SDS011;10424;52.102;8.084;2024-03-17T05:33:48;16.73;;;10.03;;
20531;SDS011;10424;52.102;8.084;2024-03-17T05:36:17;16.97;;;10.10;;
20531;SDS011;10424;52.102;8.084;2024-03-17T05:38:46;19.47;;;11.03;;
20531;SDS011;10424;52.102;8.084;2024-03-17T05:41:13;20.30;;;10.80;;
20531;SDS011;10424;52.102;8.084;2024-03-17T05:43:41;19.27;;;9.93;;
20531;SDS011;10424;52.102;8.084;2024-03-17T05:46:08;20.00;;;9.60;;
20531;SDS011;10424;52.102;8.084;2024-03-17T05:48:36;19.53;;;10.47;;
20531;SDS011;10424;52.102;8.084;2024-03-17T05:51:05;16.23;;;9.93;;
20531;SDS011;10424;52.102;8.084;2024-03-17T05:53:33;15.83;;;9.83;;
20531;SDS011;10424;52.102;8.084;2024-03-17T05:56:00;15.77;;;9.57;;
20531;SDS011;10424;52.102;8.084;2024-03-17T05:58:28;20.33;;;9.93;;
20531;SDS011;10424;52.102;8.084;2024-03-17T06:00:55;17.43;;;9.87;;
20531;SDS011;10424;52.102;8.084;2024-03-17T06:03:23;16.10;;;9.30;;
20531;SDS011;10424;52.102;8.084;2024-03-17T06:05:50;16.43;;;9.07;;
20531;SDS011;10424;52.102;8.084;2024-03-17T06:08:20;16.10;;;8.80;;
20531;SDS011;10424;52.102;8.084;2024-03-17T06:10:48;17.47;;;9.03;;
20531;SDS011;10424;52.102;8.084;2024-03-17T06:13:15;15.27;;;8.67;;
20531;SDS011;10424;52.102;8.084;2024-03-17T06:15:42;15.37;;;8.33;;
20531;SDS011;10424;52.102;8.084;2024-03-17T06:18:11;14.47;;;8.03;;
20531;SDS011;10424;52.102;8.084;2024-03-17T06:20:39;17.80;;;8.17;;
20531;SDS011;10424;52.102;8.084;2024-03-17T06:23:07;12.87;;;7.30;;
20531;SDS011;10424;52.102;8.084;2024-03-17T06:25:38;13.83;;;7.57;;
20531;SDS011;10424;52.102;8.084;2024-03-17T06:28:05;14.33;;;7.30;;
20531;SDS011;10424;52.102;8.084;2024-03-17T06:30:32;14.67;;;6.73;;
20531;SDS011;10424;52.102;8.084;2024-03-17T06:33:01;12.33;;;6.40;;
20531;SDS011;10424;52.102;8.084;2024-03-17T06:35:28;13.00;;;6.40;;
20531;SDS011;10424;52.102;8.084;2024-03-17T06:37:58;10.10;;;5.53;;
20531;SDS011;10424;52.102;8.084;2024-03-17T06:40:26;13.90;;;6.10;;
20531;SDS011;10424;52.102;8.084;2024-03-17T06:42:54;8.38;;;5.47;;
20531;SDS011;10424;52.102;8.084;2024-03-17T06:45:22;9.38;;;5.53;;
20531;SDS011;10424;52.102;8.084;2024-03-17T06:47:49;12.88;;;5.80;;
20531;SDS011;10424;52.102;8.084;2024-03-17T06:50:16;11.25;;;6.00;;
20531;SDS011;10424;52.102;8.084;2024-03-17T06:52:44;11.00;;;6.07;;
20531;SDS011;10424;52.102;8.084;2024-03-17T06:55:11;9.95;;;6.05;;
20531;SDS011;10424;52.102;8.084;2024-03-17T06:57:41;10.10;;;5.78;;
20531;SDS011;10424;52.102;8.084;2024-03-17T07:00:12;11.93;;;5.88;;
20531;SDS011;10424;52.102;8.084;2024-03-17T07:02:41;11.90;;;5.97;;
20531;SDS011;10424;52.102;8.084;2024-03-17T07:05:12;13.93;;;6.22;;
20531;SDS011;10424;52.102;8.084;2024-03-17T07:07:40;12.18;;;6.43;;
20531;SDS011;10424;52.102;8.084;2024-03-17T07:10:08;11.77;;;6.50;;
20531;SDS011;10424;52.102;8.084;2024-03-17T07:12:38;12.40;;;6.47;;
20531;SDS011;10424;52.102;8.084;2024-03-17T07:15:05;10.75;;;6.03;;
20531;SDS011;10424;52.102;8.084;2024-03-17T07:17:35;10.75;;;6.28;;
20531;SDS011;10424;52.102;8.084;2024-03-17T07:20:02;13.27;;;6.50;;
20531;SDS011;10424;52.102;8.084;2024-03-17T07:22:33;11.57;;;6.10;;
20531;SDS011;10424;52.102;8.084;2024-03-17T07:24:59;11.88;;;6.00;;
20531;SDS011;10424;52.102;8.084;2024-03-17T07:27:27;12.27;;;5.80;;
20531;SDS011;10424;52.102;8.084;2024-03-17T07:29:54;9.25;;;5.65;;
20531;SDS011;10424;52.102;8.084;2024-03-17T07:32:21;11.43;;;5.88;;
20531;SDS011;10424;52.102;8.084;2024-03-17T07:34:50;11.65;;;5.95;;
20531;SDS011;10424;52.102;8.084;2024-03-17T07:37:17;9.30;;;5.63;;
20531;SDS011;10424;52.102;8.084;2024-03-17T07:39:45;8.52;;;5.30;;
20531;SDS011;10424;52.102;8.084;2024-03-17T07:42:14;9.05;;;5.20;;
20531;SDS011;10424;52.102;8.084;2024-03-17T07:44:43;9.75;;;5.80;;
20531;SDS011;10424;52.102;8.084;2024-03-17T07:47:10;9.48;;;5.55;;
20531;SDS011;10424;52.102;8.084;2024-03-17T07:49:37;11.45;;;5.57;;
20531;SDS011;10424;52.102;8.084;2024-03-17T07:52:06;10.70;;;5.70;;
20531;SDS011;10424;52.102;8.084;2024-03-17T07:54:33;10.77;;;5.57;;
20531;SDS011;10424;52.102;8.084;2024-03-17T07:57:02;11.25;;;5.90;;
20531;SDS011;10424;52.102;8.084;2024-03-17T07:59:31;11.27;;;5.57;;
20531;SDS011;10424;52.102;8.084;2024-03-17T08:02:12;9.95;;;5.68;;
20531;SDS011;10424;52.102;8.084;2024-03-17T08:04:43;9.85;;;5.88;;
20531;SDS011;10424;52.102;8.084;2024-03-17T08:07:14;9.50;;;6.20;;
20531;SDS011;10424;52.102;8.084;2024-03-17T08:09:41;9.05;;;5.78;;
20531;SDS011;10424;52.102;8.084;2024-03-17T08:12:09;10.88;;;6.18;;
20531;SDS011;10424;52.102;8.084;2024-03-17T08:14:36;9.70;;;5.90;;
20531;SDS011;10424;52.102;8.084;2024-03-17T08:17:03;11.50;;;6.50;;
20531;SDS011;10424;52.102;8.084;2024-03-17T08:19:33;12.38;;;7.18;;
20531;SDS011;10424;52.102;8.084;2024-03-17T08:22:05;10.32;;;6.10;;
20531;SDS011;10424;52.102;8.084;2024-03-17T08:24:38;9.68;;;6.15;;
20531;SDS011;10424;52.102;8.084;2024-03-17T08:27:13;8.60;;;6.00;;
20531;SDS011;10424;52.102;8.084;2024-03-17T08:29:41;9.55;;;6.10;;
20531;SDS011;10424;52.102;8.084;2024-03-17T08:32:08;10.63;;;6.80;;
20531;SDS011;10424;52.102;8.084;2024-03-17T08:34:35;12.13;;;6.40;;
20531;SDS011;10424;52.102;8.084;2024-03-17T08:37:03;9.38;;;6.20;;
20531;SDS011;10424;52.102;8.084;2024-03-17T08:39:30;9.85;;;6.20;;
20531;SDS011;10424;52.102;8.084;2024-03-17T08:41:59;9.65;;;6.20;;
20531;SDS011;10424;52.102;8.084;2024-03-17T08:44:27;9.38;;;6.40;;
20531;SDS011;10424;52.102;8.084;2024-03-17T08:46:54;11.20;;;6.47;;
20531;SDS011;10424;52.102;8.084;2024-03-17T08:49:22;10.32;;;6.40;;
20531;SDS011;10424;52.102;8.084;2024-03-17T08:51:51;8.93;;;5.80;;
20531;SDS011;10424;52.102;8.084;2024-03-17T08:54:18;9.82;;;5.93;;
20531;SDS011;10424;52.102;8.084;2024-03-17T08:56:46;9.32;;;6.43;;
20531;SDS011;10424;52.102;8.084;2024-03-17T08:59:16;9.88;;;6.22;;
20531;SDS011;10424;52.102;8.084;2024-03-17T09:01:43;9.32;;;5.97;;
20531;SDS011;10424;52.102;8.084;2024-03-17T09:04:11;9.25;;;6.40;;
20531;SDS011;10424;52.102;8.084;2024-03-17T09:06:38;10.18;;;5.95;;
20531;SDS011;10424;52.102;8.084;2024-03-17T09:09:05;9.98;;;6.18;;
20531;SDS011;10424;52.102;8.084;2024-03-17T09:11:32;8.93;;;5.65;;
20531;SDS011;10424;52.102;8.084;2024-03-17T09:14:00;9.05;;;6.45;;
20531;SDS011;10424;52.102;8.084;2024-03-17T09:16:29;12.43;;;7.47;;
20531;SDS011;10424;52.102;8.084;2024-03-17T09:18:57;10.10;;;6.35;;
20531;SDS011;10424;52.102;8.084;2024-03-17T09:21:24;8.57;;;5.70;;
20531;SDS011;10424;52.102;8.084;2024-03-17T09:23:52;7.95;;;5.70;;
20531;SDS011;10424;52.102;8.084;2024-03-17T09:26:19;10.45;;;5.68;;
20531;SDS011;10424;52.102;8.084;2024-03-17T09:28:46;7.78;;;5.60;;
20531;SDS011;10424;52.102;8.084;2024-03-17T09:31:13;12.00;;;5.72;;
20531;SDS011;10424;52.102;8.084;2024-03-17T09:33:42;20.88;;;10.40;;
20531;SDS011;10424;52.102;8.084;2024-03-17T09:36:09;8.38;;;5.80;;
20531;SDS011;10424;52.102;8.084;2024-03-17T09:38:38;8.90;;;6.00;;
20531;SDS011;10424;52.102;8.084;2024-03-17T09:41:06;7.80;;;5.65;;
20531;SDS011;10424;52.102;8.084;2024-03-17T09:43:33;10.10;;;6.18;;
20531;SDS011;10424;52.102;8.084;2024-03-17T09:46:02;10.43;;;6.50;;
20531;SDS011;10424;52.102;8.084;2024-03-17T09:48:29;10.23;;;6.07;;
20531;SDS011;10424;52.102;8.084;2024-03-17T09:50:58;12.98;;;6.88;;
20531;SDS011;10424;52.102;8.084;2024-03-17T09:53:26;11.02;;;6.70;;
20531;SDS011;10424;52.102;8.084;2024-03-17T09:55:56;9.75;;;6.30;;
20531;SDS011;10424;52.102;8.084;2024-03-17T09:58:24;10.27;;;7.05;;
20531;SDS011;10424;52.102;8.084;2024-03-17T10:00:52;12.73;;;7.63;;
20531;SDS011;10424;52.102;8.084;2024-03-17T10:06:07;11.30;;;8.00;;
20531;SDS011;10424;52.102;8.084;2024-03-17T10:08:41;12.88;;;8.13;;
20531;SDS011;10424;52.102;8.084;2024-03-17T10:11:08;14.38;;;7.93;;
20531;SDS011;10424;52.102;8.084;2024-03-17T10:13:36;12.93;;;7.90;;
20531;SDS011;10424;52.102;8.084;2024-03-17T10:16:03;12.10;;;7.88;;
20531;SDS011;10424;52.102;8.084;2024-03-17T10:18:30;12.85;;;8.02;;
20531;SDS011;10424;52.102;8.084;2024-03-17T10:20:58;12.68;;;7.95;;
20531;SDS011;10424;52.102;8.084;2024-03-17T10:23:28;12.10;;;7.95;;
20531;SDS011;10424;52.102;8.084;2024-03-17T10:25:55;11.60;;;7.85;;
20531;SDS011;10424;52.102;8.084;2024-03-17T10:28:22;11.88;;;7.45;;
20531;SDS011;10424;52.102;8.084;2024-03-17T10:30:58;12.77;;;8.40;;
20531;SDS011;10424;52.102;8.084;2024-03-17T10:33:26;10.30;;;7.15;;
20531;SDS011;10424;52.102;8.084;2024-03-17T10:35:59;13.05;;;7.45;;
20531;SDS011;10424;52.102;8.084;2024-03-17T10:38:28;11.40;;;7.55;;
20531;SDS011;10424;52.102;8.084;2024-03-17T10:40:56;13.57;;;8.23;;
20531;SDS011;10424;52.102;8.084;2024-03-17T10:43:23;10.75;;;7.72;;
20531;SDS011;10424;52.102;8.084;2024-03-17T10:45:53;11.35;;;7.72;;
20531;SDS011;10424;52.102;8.084;2024-03-17T10:48:21;12.90;;;7.55;;
20531;SDS011;10424;52.102;8.084;2024-03-17T10:50:52;13.77;;;8.60;;
20531;SDS011;10424;52.102;8.084;2024-03-17T10:53:20;12.48;;;7.88;;
20531;SDS011;10424;52.102;8.084;2024-03-17T10:55:54;11.48;;;8.15;;
20531;SDS011;10424;52.102;8.084;2024-03-17T10:58:23;14.32;;;7.85;;
20531;SDS011;10424;52.102;8.084;2024-03-17T11:00:50;10.40;;;7.10;;
20531;SDS011;10424;52.102;8.084;2024-03-17T11:03:18;12.20;;;8.63;;
20531;SDS011;10424;52.102;8.084;2024-03-17T11:05:47;11.18;;;8.30;;
20531;SDS011;10424;52.102;8.084;2024-03-17T11:08:16;10.38;;;7.57;;
20531;SDS011;10424;52.102;8.084;2024-03-17T11:10:48;13.05;;;8.23;;
20531;SDS011;10424;52.102;8.084;2024-03-17T11:13:23;11.32;;;8.02;;
20531;SDS011;10424;52.102;8.084;2024-03-17T11:15:51;10.57;;;8.13;;
20531;SDS011;10424;52.102;8.084;2024-03-17T11:18:36;10.93;;;7.82;;
20531;SDS011;10424;52.102;8.084;2024-03-17T11:21:03;10.20;;;8.00;;
20531;SDS011;10424;52.102;8.084;2024-03-17T11:23:35;10.63;;;8.00;;
20531;SDS011;10424;52.102;8.084;2024-03-17T11:26:03;12.68;;;8.23;;
20531;SDS011;10424;52.102;8.084;2024-03-17T11:28:50;10.98;;;7.80;;
20531;SDS011;10424;52.102;8.084;2024-03-17T11:34:06;12.30;;;8.15;;
20531;SDS011;10424;52.102;8.084;2024-03-17T11:36:33;12.25;;;8.77;;
20531;SDS011;10424;52.102;8.084;2024-03-17T11:39:02;12.80;;;8.57;;
20531;SDS011;10424;52.102;8.084;2024-03-17T11:41:38;15.00;;;9.27;;
20531;SDS011;10424;52.102;8.084;2024-03-17T11:44:14;14.85;;;9.25;;
20531;SDS011;10424;52.102;8.084;2024-03-17T11:46:41;10.65;;;7.60;;
20531;SDS011;10424;52.102;8.084;2024-03-17T11:49:12;10.00;;;7.05;;
20531;SDS011;10424;52.102;8.084;2024-03-17T11:51:42;13.55;;;8.65;;
20531;SDS011;10424;52.102;8.084;2024-03-17T11:54:11;12.77;;;8.73;;
20531;SDS011;10424;52.102;8.084;2024-03-17T11:56:41;14.48;;;8.93;;
20531;SDS011;10424;52.102;8.084;2024-03-17T11:59:07;14.02;;;8.85;;
20531;SDS011;10424;52.102;8.084;2024-03-17T12:01:37;14.68;;;9.15;;
20531;SDS011;10424;52.102;8.084;2024-03-17T12:04:04;16.23;;;9.00;;
20531;SDS011;10424;52.102;8.084;2024-03-17T12:06:31;10.32;;;7.50;;
20531;SDS011;10424;52.102;8.084;2024-03-17T12:09:10;13.95;;;8.02;;
20531;SDS011;10424;52.102;8.084;2024-03-17T12:11:39;11.70;;;7.95;;
20531;SDS011;10424;52.102;8.084;2024-03-17T12:14:13;12.82;;;9.00;;
20531;SDS011;10424;52.102;8.084;2024-03-17T12:16:49;12.93;;;8.50;;
20531;SDS011;10424;52.102;8.084;2024-03-17T12:19:16;13.30;;;8.20;;
20531;SDS011;10424;52.102;8.084;2024-03-17T12:21:44;13.25;;;8.32;;
20531;SDS011;10424;52.102;8.084;2024-03-17T12:24:13;12.63;;;8.55;;
20531;SDS011;10424;52.102;8.084;2024-03-17T12:26:42;9.68;;;7.07;;
20531;SDS011;10424;52.102;8.084;2024-03-17T12:29:24;11.63;;;7.63;;
20531;SDS011;10424;52.102;8.084;2024-03-17T12:31:54;12.38;;;6.93;;
20531;SDS011;10424;52.102;8.084;2024-03-17T12:34:21;9.80;;;7.00;;
20531;SDS011;10424;52.102;8.084;2024-03-17T12:36:49;11.40;;;7.15;;
20531;SDS011;10424;52.102;8.084;2024-03-17T12:39:18;10.45;;;6.72;;
20531;SDS011;10424;52.102;8.084;2024-03-17T12:42:00;12.02;;;7.80;;
20531;SDS011;10424;52.102;8.084;2024-03-17T12:44:28;11.95;;;8.07;;
20531;SDS011;10424;52.102;8.084;2024-03-17T12:46:56;12.82;;;7.68;;
20531;SDS011;10424;52.102;8.084;2024-03-17T12:49:25;11.82;;;8.13;;
20531;SDS011;10424;52.102;8.084;2024-03-17T12:51:52;12.15;;;8.00;;
20531;SDS011;10424;52.102;8.084;2024-03-17T12:54:20;12.63;;;8.00;;
20531;SDS011;10424;52.102;8.084;2024-03-17T12:56:48;11.02;;;7.90;;
20531;SDS011;10424;52.102;8.084;2024-03-17T12:59:44;14.18;;;8.05;;
20531;SDS011;10424;52.102;8.084;2024-03-17T13:02:30;12.35;;;8.05;;
20531;SDS011;10424;52.102;8.084;2024-03-17T13:05:07;10.35;;;7.85;;
20531;SDS011;10424;52.102;8.084;2024-03-17T13:07:34;12.38;;;8.27;;
20531;SDS011;10424;52.102;8.084;2024-03-17T13:10:02;13.45;;;7.80;;
20531;SDS011;10424;52.102;8.084;2024-03-17T13:12:32;11.02;;;7.60;;
20531;SDS011;10424;52.102;8.084;2024-03-17T13:14:59;11.25;;;7.55;;
20531;SDS011;10424;52.102;8.084;2024-03-17T13:17:26;15.73;;;9.20;;
20531;SDS011;10424;52.102;8.084;2024-03-17T13:19:57;13.00;;;8.15;;
20531;SDS011;10424;52.102;8.084;2024-03-17T13:22:24;14.18;;;8.65;;
20531;SDS011;10424;52.102;8.084;2024-03-17T13:24:51;13.30;;;8.70;;
20531;SDS011;10424;52.102;8.084;2024-03-17T13:27:18;13.65;;;8.90;;
20531;SDS011;10424;52.102;8.084;2024-03-17T13:29:49;14.98;;;8.77;;
20531;SDS011;10424;52.102;8.084;2024-03-17T13:32:16;14.15;;;8.57;;
20531;SDS011;10424;52.102;8.084;2024-03-17T13:34:43;13.18;;;8.70;;
20531;SDS011;10424;52.102;8.084;2024-03-17T13:37:12;13.48;;;8.10;;
20531;SDS011;10424;52.102;8.084;2024-03-17T13:39:39;12.95;;;8.85;;
20531;SDS011;10424;52.102;8.084;2024-03-17T13:42:06;12.80;;;8.32;;
20531;SDS011;10424;52.102;8.084;2024-03-17T13:44:34;11.88;;;7.78;;
20531;SDS011;10424;52.102;8.084;2024-03-17T13:47:01;13.88;;;8.45;;
20531;SDS011;10424;52.102;8.084;2024-03-17T13:49:29;13.70;;;7.82;;
20531;SDS011;10424;52.102;8.084;2024-03-17T13:51:56;13.20;;;9.25;;
20531;SDS011;10424;52.102;8.084;2024-03-17T13:54:25;14.30;;;9.20;;
20531;SDS011;10424;52.102;8.084;2024-03-17T13:56:52;15.48;;;8.77;;
20531;SDS011;10424;52.102;8.084;2024-03-17T13:59:20;12.38;;;8.35;;
20531;SDS011;10424;52.102;8.084;2024-03-17T14:01:48;13.60;;;9.13;;
20531;SDS011;10424;52.102;8.084;2024-03-17T14:04:15;13.80;;;8.77;;
20531;SDS011;10424;52.102;8.084;2024-03-17T14:06:44;13.82;;;8.73;;
20531;SDS011;10424;52.102;8.084;2024-03-17T14:09:14;13.57;;;8.70;;
20531;SDS011;10424;52.102;8.084;2024-03-17T14:11:44;14.88;;;8.90;;
20531;SDS011;10424;52.102;8.084;2024-03-17T14:14:12;13.27;;;8.68;;
20531;SDS011;10424;52.102;8.084;2024-03-17T14:16:39;13.80;;;8.85;;
20531;SDS011;10424;52.102;8.084;2024-03-17T14:19:07;13.30;;;8.77;;
20531;SDS011;10424;52.102;8.084;2024-03-17T14:21:35;14.70;;;9.32;;
20531;SDS011;10424;52.102;8.084;2024-03-17T14:24:02;14.43;;;9.05;;
20531;SDS011;10424;52.102;8.084;2024-03-17T14:26:32;12.70;;;8.80;;
20531;SDS011;10424;52.102;8.084;2024-03-17T14:29:01;14.88;;;9.18;;
20531;SDS011;10424;52.102;8.084;2024-03-17T14:31:31;16.38;;;9.38;;
20531;SDS011;10424;52.102;8.084;2024-03-17T14:34:01;16.42;;;9.15;;
20531;SDS011;10424;52.102;8.084;2024-03-17T14:36:30;14.23;;;9.40;;
20531;SDS011;10424;52.102;8.084;2024-03-17T14:38:58;13.88;;;8.75;;
20531;SDS011;10424;52.102;8.084;2024-03-17T14:41:27;13.50;;;9.20;;
20531;SDS011;10424;52.102;8.084;2024-03-17T14:43:55;13.27;;;8.57;;
20531;SDS011;10424;52.102;8.084;2024-03-17T14:46:24;15.75;;;9.38;;
20531;SDS011;10424;52.102;8.084;2024-03-17T14:48:53;13.02;;;8.38;;
20531;SDS011;10424;52.102;8.084;2024-03-17T14:51:20;11.02;;;7.57;;